Time;durP1;ratioP1;P1;durP2;ratioP2;P2;SDS_P1;SDS_P2;PMS_P1;PMS_P2;Temp;Humidity;BMP_temperature;BMP_pressure;BME280_temperature;BME280_humidity;BME280_pressure;Samples;Min_cycle;Max_cycle;Signal;HPM_P1;HPM_P2
2023/04/04 00:00:11;;;;;;;5.80;2.67;;;;;;;8.98;100.00;93404.47;5011031;28;20456;-77
2023/04/04 00:02:37;;;;;;;3.73;2.07;;;;;;;9.07;100.00;93416.97;5003038;28;20177;-77
2023/04/04 00:05:03;;;;;;;3.13;2.10;;;;;;;9.07;100.00;93410.91;5002316;28;20279;-77
2023/04/04 00:07:29;;;;;;;5.50;2.25;;;;;;;8.97;100.00;93390.53;4993519;28;20412;-77
2023/04/04 00:09:55;;;;;;;6.93;2.60;;;;;;;9.06;100.00;93409.31;4992256;28;20424;-77
2023/04/04 00:12:21;;;;;;;6.77;2.93;;;;;;;9.13;100.00;93414.41;5004738;28;20185;-77
2023/04/04 00:14:46;;;;;;;7.03;3.13;;;;;;;9.05;100.00;93382.28;5012639;28;20446;-76
2023/04/04 00:17:12;;;;;;;10.07;3.40;;;;;;;9.08;100.00;93392.28;5006148;28;20235;-76
2023/04/04 00:19:37;;;;;;;9.00;3.83;;;;;;;9.26;99.45;93414.88;4993515;28;20181;-77
2023/04/04 00:22:03;;;;;;;11.60;4.73;;;;;;;9.24;98.95;93393.34;5007076;28;20419;-76
2023/04/04 00:24:29;;;;;;;11.48;4.85;;;;;;;9.28;98.72;93401.53;4992151;28;20424;-76
2023/04/04 00:26:54;;;;;;;12.18;4.97;;;;;;;9.25;98.91;93397.56;5000022;28;20493;-76
2023/04/04 00:29:20;;;;;;;9.83;4.43;;;;;;;9.20;98.39;93394.84;5001605;28;20454;-76
2023/04/04 00:31:45;;;;;;;12.83;5.00;;;;;;;9.11;99.00;93391.03;5003284;28;20415;-77
2023/04/04 00:34:12;;;;;;;12.60;4.90;;;;;;;9.04;99.61;93385.13;4997557;28;20431;-76
2023/04/04 00:36:37;;;;;;;13.77;5.07;;;;;;;9.11;99.96;93380.53;4991640;28;20439;-76
2023/04/04 00:39:03;;;;;;;12.13;5.23;;;;;;;9.14;100.00;93381.88;4991158;28;20454;-76
2023/04/04 00:41:28;;;;;;;8.10;3.37;;;;;;;8.99;99.67;93382.44;4993458;28;20917;-76
2023/04/04 00:43:55;;;;;;;9.27;3.43;;;;;;;8.94;99.53;93369.22;5007427;28;20185;-76
2023/04/04 00:46:21;;;;;;;6.35;3.03;;;;;;;9.06;99.37;93372.56;4991537;28;20478;-76
2023/04/04 00:48:47;;;;;;;5.87;3.40;;;;;;;8.98;99.14;93378.22;5009574;28;20415;-76
2023/04/04 00:51:12;;;;;;;6.03;3.70;;;;;;;8.85;99.63;93368.00;5011649;28;20433;-76
2023/04/04 00:53:38;;;;;;;11.77;3.87;;;;;;;8.99;100.00;93364.84;5006807;28;20205;-76
2023/04/04 00:56:04;;;;;;;6.65;3.20;;;;;;;8.95;99.54;93342.75;5008544;28;20415;-76
2023/04/04 00:58:30;;;;;;;4.87;2.80;;;;;;;9.02;99.88;93361.75;5027499;28;20235;-76
2023/04/04 01:00:56;;;;;;;5.30;3.28;;;;;;;8.95;98.98;93373.44;5026092;28;20477;-76
2023/04/04 01:03:22;;;;;;;5.32;3.70;;;;;;;8.56;100.00;93341.81;5010514;28;20418;-76
2023/04/04 01:05:47;;;;;;;4.47;3.30;;;;;;;8.71;100.00;93367.53;4994298;28;20440;-76
2023/04/04 01:08:20;;;;;;;4.93;3.40;;;;;;;8.74;100.00;93366.25;5010408;28;20428;-77
2023/04/04 01:10:46;;;;;;;3.60;2.93;;;;;;;8.99;100.00;93385.84;5012013;28;20414;-77
2023/04/04 01:13:11;;;;;;;5.68;3.40;;;;;;;8.93;100.00;93368.41;5011597;28;20480;-76
2023/04/04 01:15:37;;;;;;;4.13;2.80;;;;;;;9.08;100.00;93381.00;5002889;28;20184;-76
2023/04/04 01:18:04;;;;;;;3.70;3.17;;;;;;;9.05;100.00;93376.22;4990869;28;20471;-76
2023/04/04 01:20:32;;;;;;;3.00;2.53;;;;;;;9.11;99.71;93372.66;4997632;28;20263;-76
2023/04/04 01:22:59;;;;;;;2.73;2.27;;;;;;;9.32;98.95;93397.41;5003200;28;20168;-76
2023/04/04 01:25:29;;;;;;;2.63;2.42;;;;;;;9.24;98.03;93400.44;5009282;28;20796;-76
2023/04/04 01:27:55;;;;;;;2.83;2.63;;;;;;;9.25;98.08;93394.16;4996612;28;20176;-77
2023/04/04 01:30:21;;;;;;;2.70;2.50;;;;;;;9.37;97.77;93397.47;5005615;28;20208;-76
2023/04/04 01:33:00;;;;;;;2.97;2.70;;;;;;;9.27;97.23;93379.72;5010030;28;20266;-77
2023/04/04 01:35:50;;;;;;;2.63;2.40;;;;;;;9.37;97.36;93386.97;5007677;28;20259;-76
2023/04/04 01:38:33;;;;;;;2.92;2.35;;;;;;;9.41;97.13;93393.34;4999694;28;20492;-76
2023/04/04 01:41:05;;;;;;;2.67;2.47;;;;;;;9.29;97.26;93374.25;5010233;28;20453;-76
2023/04/04 01:43:31;;;;;;;3.05;2.80;;;;;;;9.43;97.13;93384.19;4992900;28;20462;-76
2023/04/04 01:45:58;;;;;;;2.25;2.05;;;;;;;9.28;96.06;93376.06;5001949;28;20450;-76
2023/04/04 01:48:23;;;;;;;2.40;2.20;;;;;;;9.30;96.35;93368.75;5005541;28;20412;-76
2023/04/04 01:50:49;;;;;;;2.70;2.50;;;;;;;9.27;96.36;93369.22;4991955;28;20244;-76
2023/04/04 01:53:14;;;;;;;4.40;4.00;;;;;;;9.30;95.70;93349.59;5008663;28;20915;-76
2023/04/04 01:55:40;;;;;;;3.90;3.50;;;;;;;9.24;94.86;93348.72;5010147;28;20420;-76
2023/04/04 01:58:05;;;;;;;9.20;8.30;;;;;;;9.28;95.79;93341.16;5009646;28;20460;-77
2023/04/04 02:00:30;;;;;;;4.77;4.27;;;;;;;9.31;94.63;93338.03;5005420;28;20226;-77
2023/04/04 02:02:56;;;;;;;4.18;3.72;;;;;;;9.20;94.90;93338.91;5007590;28;20520;-78
2023/04/04 02:05:22;;;;;;;1.80;1.70;;;;;;;9.19;94.89;93339.94;4996062;28;20440;-79
2023/04/04 02:07:49;;;;;;;1.70;1.60;;;;;;;9.26;94.92;93340.56;4998566;28;20681;-78
2023/04/04 02:10:15;;;;;;;1.80;1.70;;;;;;;9.14;94.77;93340.69;4997223;28;20959;-78
2023/04/04 02:12:40;;;;;;;1.83;1.73;;;;;;;9.11;94.36;93335.91;5000314;28;20411;-79
2023/04/04 02:15:06;;;;;;;1.80;1.70;;;;;;;9.02;94.47;93329.47;5009447;28;20490;-78
2023/04/04 02:17:32;;;;;;;1.93;1.83;;;;;;;9.07;94.88;93321.69;5001132;28;20254;-78
2023/04/04 02:19:57;;;;;;;1.93;1.73;;;;;;;9.22;94.88;93339.47;4997022;28;20626;-78
2023/04/04 02:22:22;;;;;;;1.70;1.60;;;;;;;9.14;95.44;93319.69;5003227;28;20200;-78
2023/04/04 02:24:48;;;;;;;2.13;1.88;;;;;;;9.24;96.03;93338.22;5000597;28;20426;-78
2023/04/04 02:27:13;;;;;;;2.53;2.33;;;;;;;9.12;95.98;93324.38;5022357;28;20436;-78
2023/04/04 02:29:39;;;;;;;2.00;1.80;;;;;;;9.11;95.50;93322.78;5000251;28;20785;-78
2023/04/04 02:32:04;;;;;;;1.93;1.80;;;;;;;8.88;95.90;93309.81;5007078;28;20505;-78
2023/04/04 02:34:29;;;;;;;1.90;1.70;;;;;;;8.67;96.51;93295.56;4993201;28;20475;-78
2023/04/04 02:36:55;;;;;;;2.23;1.70;;;;;;;9.01;96.81;93336.53;5003094;28;20275;-78
2023/04/04 02:39:20;;;;;;;3.08;1.83;;;;;;;9.04;95.76;93340.53;5005663;28;20789;-77
2023/04/04 02:41:46;;;;;;;2.03;1.40;;;;;;;9.00;95.93;93326.28;5000634;28;20307;-78
2023/04/04 02:44:11;;;;;;;1.90;1.80;;;;;;;9.05;95.46;93319.28;5000278;28;20423;-78
2023/04/04 02:46:37;;;;;;;2.10;1.80;;;;;;;9.07;95.09;93346.09;5002381;28;20422;-78
2023/04/04 02:49:03;;;;;;;1.97;1.83;;;;;;;9.00;95.79;93337.56;5009985;28;20498;-77
2023/04/04 02:51:28;;;;;;;2.17;1.97;;;;;;;9.05;94.92;93319.28;5002970;28;20252;-77
2023/04/04 02:53:54;;;;;;;2.40;2.10;;;;;;;9.15;94.28;93339.66;5005645;28;20169;-77
2023/04/04 02:56:20;;;;;;;3.42;2.50;;;;;;;9.20;94.06;93347.59;5002320;28;20427;-77
2023/04/04 02:58:45;;;;;;;3.80;2.83;;;;;;;8.95;94.07;93320.94;5004007;28;20165;-77
2023/04/04 03:01:11;;;;;;;2.70;2.30;;;;;;;9.05;93.71;93348.16;5011656;28;20184;-77
2023/04/04 03:03:36;;;;;;;2.73;2.53;;;;;;;9.05;95.00;93355.25;4996550;28;20184;-77
2023/04/04 03:06:02;;;;;;;2.20;2.00;;;;;;;9.07;95.80;93359.22;5005398;28;20213;-78
2023/04/04 03:08:27;;;;;;;2.33;2.13;;;;;;;9.09;96.30;93358.97;5006008;28;20211;-77
2023/04/04 03:10:52;;;;;;;4.85;3.97;;;;;;;9.07;96.33;93359.22;5006541;28;20458;-78
2023/04/04 03:13:18;;;;;;;5.60;3.97;;;;;;;9.08;96.93;93355.53;5012825;28;20234;-78
2023/04/04 03:15:43;;;;;;;8.63;6.33;;;;;;;9.08;97.03;93357.41;5000299;28;20184;-78
2023/04/04 03:18:09;;;;;;;10.07;7.17;;;;;;;9.14;97.21;93356.44;4999831;28;20235;-78
2023/04/04 03:20:34;;;;;;;7.70;5.00;;;;;;;9.17;97.73;93358.56;5009853;28;20191;-78
2023/04/04 03:23:00;;;;;;;7.03;4.97;;;;;;;9.20;97.81;93357.31;5013996;28;20191;-77
2023/04/04 03:25:25;;;;;;;7.57;5.77;;;;;;;9.27;97.71;93369.22;5005620;28;20180;-78
2023/04/04 03:27:51;;;;;;;7.27;5.27;;;;;;;9.10;97.77;93347.44;4999984;28;20177;-78
2023/04/04 03:30:16;;;;;;;7.53;5.87;;;;;;;9.26;97.96;93362.38;5011741;28;20544;-78
2023/04/04 03:32:42;;;;;;;8.50;6.77;;;;;;;9.12;97.67;93341.94;5005678;28;20172;-78
2023/04/04 03:35:08;;;;;;;10.90;7.27;;;;;;;9.04;97.96;93343.94;5011061;28;20176;-78
2023/04/04 03:37:34;;;;;;;7.80;5.97;;;;;;;9.23;97.86;93362.88;5006829;28;20200;-78
2023/04/04 03:39:59;;;;;;;13.07;8.93;;;;;;;9.26;97.03;93364.22;5009115;28;20426;-77
2023/04/04 03:42:28;;;;;;;16.10;9.97;;;;;;;9.13;97.25;93367.16;5011275;28;20183;-78
2023/04/04 03:44:53;;;;;;;16.77;11.27;;;;;;;9.04;97.65;93359.69;5010542;28;20661;-78
2023/04/04 03:47:19;;;;;;;16.27;12.00;;;;;;;8.99;98.14;93356.19;5009562;28;20186;-76
2023/04/04 03:49:45;;;;;;;19.03;13.13;;;;;;;9.03;98.46;93368.59;5007437;28;20196;-77
2023/04/04 03:52:10;;;;;;;27.87;17.83;;;;;;;9.04;98.80;93364.13;5002101;28;20186;-76
2023/04/04 03:54:36;;;;;;;21.40;14.70;;;;;;;9.06;98.47;93372.56;4993728;28;20654;-76
2023/04/04 03:57:02;;;;;;;19.27;14.03;;;;;;;9.03;98.51;93360.72;4993857;28;20673;-77
2023/04/04 03:59:28;;;;;;;18.53;13.37;;;;;;;8.91;98.86;93339.00;5011237;28;20176;-76
2023/04/04 04:01:53;;;;;;;21.40;14.47;;;;;;;8.97;98.90;93356.44;5025559;28;20646;-76
2023/04/04 04:04:19;;;;;;;21.23;15.10;;;;;;;8.95;99.27;93353.25;5004242;28;20240;-77
2023/04/04 04:06:44;;;;;;;26.40;17.63;;;;;;;8.91;98.90;93346.84;5010997;28;20453;-77
2023/04/04 04:09:11;;;;;;;20.73;15.67;;;;;;;8.84;98.76;93354.09;5004918;28;20176;-78
2023/04/04 04:11:36;;;;;;;24.40;17.23;;;;;;;8.80;99.59;93349.56;5012188;28;20501;-77
2023/04/04 04:14:02;;;;;;;23.67;15.20;;;;;;;8.69;99.88;93335.47;5013062;28;20629;-77
2023/04/04 04:16:28;;;;;;;23.42;16.05;;;;;;;8.82;100.00;93353.53;5004261;28;20995;-79
2023/04/04 04:18:53;;;;;;;27.00;14.27;;;;;;;8.88;100.00;93370.16;5011585;28;20263;-79
2023/04/04 04:21:19;;;;;;;24.83;15.93;;;;;;;8.94;100.00;93377.09;5005352;28;20543;-78
2023/04/04 04:23:44;;;;;;;14.90;10.43;;;;;;;8.96;99.58;93369.78;5004450;28;20723;-78
2023/04/04 04:26:10;;;;;;;18.67;10.80;;;;;;;8.99;99.47;93369.31;5005151;28;20192;-77
2023/04/04 04:28:35;;;;;;;20.30;12.30;;;;;;;9.05;99.50;93369.16;5011445;28;20418;-76
2023/04/04 04:31:06;;;;;;;16.17;10.63;;;;;;;9.15;99.14;93378.22;4993521;28;20180;-77
2023/04/04 04:33:31;;;;;;;22.00;14.87;;;;;;;8.94;99.40;93356.91;4999287;28;20181;-77
2023/04/04 04:36:04;;;;;;;30.23;17.13;;;;;;;9.11;99.04;93390.22;5001710;28;20231;-77
2023/04/04 04:38:30;;;;;;;33.73;18.53;;;;;;;9.11;99.44;93396.28;4996231;28;20241;-77
2023/04/04 04:40:56;;;;;;;19.57;12.50;;;;;;;9.04;99.35;93379.88;5007048;28;20181;-77
2023/04/04 04:43:22;;;;;;;22.33;10.97;;;;;;;9.19;98.97;93395.88;4992912;28;20192;-77
2023/04/04 04:45:47;;;;;;;16.67;9.87;;;;;;;9.14;99.19;93384.50;5000898;28;20258;-78
2023/04/04 04:48:15;;;;;;;15.40;10.20;;;;;;;9.28;99.12;93402.31;5010596;28;20641;-77
2023/04/04 04:50:46;;;;;;;18.00;12.00;;;;;;;9.31;99.15;93401.06;5002917;28;20172;-77
2023/04/04 04:53:12;;;;;;;15.67;10.57;;;;;;;9.42;98.82;93411.50;5002899;28;20263;-78
2023/04/04 04:55:37;;;;;;;15.60;10.40;;;;;;;9.51;99.07;93416.34;5000516;28;20181;-77
2023/04/04 04:58:05;;;;;;;20.17;12.63;;;;;;;9.51;98.57;93411.09;5003797;28;20208;-78
2023/04/04 05:00:30;;;;;;;28.37;16.00;;;;;;;9.55;98.45;93407.72;5011603;28;20652;-78
2023/04/04 05:02:56;;;;;;;23.07;14.10;;;;;;;9.66;98.19;93420.00;5007826;28;20184;-78
2023/04/04 05:05:22;;;;;;;24.63;14.03;;;;;;;9.68;97.88;93427.63;4997979;28;20692;-78
2023/04/04 05:07:47;;;;;;;23.07;13.87;;;;;;;9.72;97.86;93432.16;5003553;28;20161;-78
2023/04/04 05:10:13;;;;;;;25.83;13.73;;;;;;;9.81;97.98;93422.03;5006362;28;20557;-78
2023/04/04 05:12:43;;;;;;;20.73;13.23;;;;;;;9.93;97.71;93429.84;5002612;28;20235;-76
2023/04/04 05:15:10;;;;;;;16.53;11.40;;;;;;;9.84;97.18;93401.34;4991720;28;20208;-77
2023/04/04 05:17:35;;;;;;;17.80;10.63;;;;;;;10.16;97.02;93429.63;4992110;28;20763;-76
2023/04/04 05:20:00;;;;;;;14.57;10.77;;;;;;;10.21;96.34;93427.06;5000786;28;20180;-76
2023/04/04 05:22:27;;;;;;;15.53;10.27;;;;;;;10.32;96.31;93438.53;5004955;28;20238;-77
2023/04/04 05:24:52;;;;;;;13.70;8.53;;;;;;;10.37;95.36;93435.97;5011842;28;20195;-76
2023/04/04 05:27:18;;;;;;;14.87;9.40;;;;;;;10.37;95.32;93439.41;5006020;28;20259;-77
2023/04/04 05:29:47;;;;;;;14.57;9.50;;;;;;;10.58;96.33;93422.81;5011998;28;20179;-77
2023/04/04 05:32:12;;;;;;;14.60;9.97;;;;;;;11.26;94.49;93441.66;5011975;28;20234;-77
2023/04/04 05:34:38;;;;;;;14.50;9.90;;;;;;;11.40;92.15;93405.97;5011933;28;20172;-76
2023/04/04 05:37:03;;;;;;;12.70;7.77;;;;;;;12.12;92.57;93442.34;5011865;28;20203;-77
2023/04/04 05:39:28;;;;;;;10.00;7.73;;;;;;;12.81;89.47;93447.41;5011718;28;20227;-77
2023/04/04 05:41:54;;;;;;;8.53;6.47;;;;;;;12.96;86.42;93428.22;5011536;28;20623;-77
2023/04/04 05:44:19;;;;;;;10.37;7.43;;;;;;;13.00;85.17;93453.03;5010318;28;20421;-76
2023/04/04 05:46:45;;;;;;;10.73;7.17;;;;;;;12.77;85.57;93444.53;5011668;28;20184;-78
2023/04/04 05:49:10;;;;;;;13.13;8.87;;;;;;;12.77;85.52;93462.22;5012049;28;20560;-78
2023/04/04 05:51:36;;;;;;;11.13;7.70;;;;;;;12.73;85.84;93469.03;5011984;28;20645;-78
2023/04/04 05:54:01;;;;;;;8.60;6.60;;;;;;;12.55;86.18;93456.28;5012156;28;20634;-79
2023/04/04 05:56:26;;;;;;;7.37;6.00;;;;;;;12.47;86.70;93458.38;5011752;28;20664;-78
2023/04/04 05:58:52;;;;;;;7.40;5.90;;;;;;;12.43;87.91;93459.16;5011970;28;20172;-78
2023/04/04 06:01:18;;;;;;;8.37;5.93;;;;;;;12.36;87.58;93459.38;5012080;28;20172;-79
2023/04/04 06:03:43;;;;;;;9.30;6.07;;;;;;;12.33;87.54;93467.00;5012246;28;20744;-79
2023/04/04 06:06:10;;;;;;;11.60;8.53;;;;;;;12.31;87.32;93464.63;5010510;28;20244;-79
2023/04/04 06:08:35;;;;;;;15.87;9.43;;;;;;;12.30;88.08;93456.94;5012154;28;20175;-79
2023/04/04 06:11:00;;;;;;;14.57;9.30;;;;;;;12.51;88.40;93463.94;5011891;28;20230;-77
2023/04/04 06:13:26;;;;;;;15.00;9.33;;;;;;;12.60;87.58;93464.25;5012189;28;20251;-76
2023/04/04 06:15:51;;;;;;;8.43;6.57;;;;;;;12.66;87.12;93471.94;5012082;28;20177;-76
2023/04/04 06:18:17;;;;;;;9.83;6.63;;;;;;;12.71;86.34;93471.94;5012040;28;20749;-77
2023/04/04 06:20:43;;;;;;;10.73;7.17;;;;;;;12.84;86.49;93481.25;5011607;28;20177;-79
2023/04/04 06:23:08;;;;;;;11.13;7.63;;;;;;;12.97;86.85;93477.34;5011489;28;20645;-79
2023/04/04 06:25:54;;;;;;;9.07;5.63;;;;;;;12.85;84.19;93493.41;5011242;28;20252;-79
2023/04/04 06:28:20;;;;;;;5.10;3.43;;;;;;;12.30;81.13;93478.84;5012971;28;20562;-79
2023/04/04 06:30:46;;;;;;;3.30;2.57;;;;;;;11.61;81.27;93473.59;5016449;28;20172;-79
2023/04/04 06:33:12;;;;;;;4.67;3.03;;;;;;;11.40;81.91;93506.09;5014742;28;20722;-79
2023/04/04 06:35:37;;;;;;;4.93;3.23;;;;;;;11.06;81.92;93513.38;5015641;28;20736;-79
2023/04/04 06:38:05;;;;;;;7.63;5.33;;;;;;;10.67;82.36;93510.00;5015586;28;20708;-79
2023/04/04 06:40:31;;;;;;;5.60;3.57;;;;;;;10.43;82.17;93530.47;5014325;28;20200;-79
2023/04/04 06:42:59;;;;;;;5.93;3.67;;;;;;;9.94;81.83;93532.09;5015608;28;20200;-79
2023/04/04 06:45:26;;;;;;;4.90;3.07;;;;;;;9.66;82.89;93538.22;5015310;28;20251;-78
2023/04/04 06:47:53;;;;;;;5.33;3.67;;;;;;;9.52;84.53;93536.91;5004088;28;20169;-77
2023/04/04 06:50:20;;;;;;;2.23;1.80;;;;;;;9.21;82.86;93546.09;5010541;28;20211;-77
2023/04/04 06:52:46;;;;;;;1.90;1.60;;;;;;;8.92;83.30;93550.50;5005412;28;20261;-77
2023/04/04 06:55:12;;;;;;;2.07;1.33;;;;;;;8.44;83.76;93534.31;5006975;28;20724;-77
2023/04/04 06:57:38;;;;;;;3.40;1.80;;;;;;;8.36;84.81;93547.78;5014265;28;20280;-77
2023/04/04 07:00:05;;;;;;;0.87;0.87;;;;;;;8.21;84.53;93556.06;5004440;28;20185;-76
2023/04/04 07:02:31;;;;;;;1.50;1.40;;;;;;;8.15;86.33;93542.03;4994873;28;20216;-76
2023/04/04 07:04:57;;;;;;;2.10;1.47;;;;;;;8.14;84.81;93568.47;5014200;28;20173;-76
2023/04/04 07:07:23;;;;;;;7.97;4.30;;;;;;;8.04;84.76;93573.50;5005604;28;20222;-77
2023/04/04 07:09:49;;;;;;;3.80;2.60;;;;;;;7.83;84.63;93569.59;5006838;28;20245;-77
2023/04/04 07:12:14;;;;;;;3.13;1.30;;;;;;;7.89;85.24;93595.66;5003811;28;20173;-77
2023/04/04 07:14:40;;;;;;;2.00;1.30;;;;;;;7.76;84.49;93582.78;5003436;28;20184;-77
2023/04/04 07:17:06;;;;;;;1.47;1.13;;;;;;;7.70;83.31;93614.28;5003479;28;20292;-77
2023/04/04 07:19:31;;;;;;;3.00;1.67;;;;;;;7.66;85.44;93616.59;5011817;28;20199;-77
2023/04/04 07:21:57;;;;;;;1.40;1.30;;;;;;;7.54;84.45;93621.75;5005459;28;20634;-76
2023/04/04 07:24:22;;;;;;;1.47;1.30;;;;;;;7.55;84.64;93623.38;5014213;28;20756;-77
2023/04/04 07:26:48;;;;;;;2.97;1.70;;;;;;;7.45;84.95;93636.19;5005377;28;20622;-77
2023/04/04 07:29:13;;;;;;;1.97;1.77;;;;;;;7.40;85.83;93640.50;5014093;28;20184;-77
2023/04/04 07:31:39;;;;;;;1.30;1.20;;;;;;;7.42;85.08;93643.69;4996789;28;20188;-78
2023/04/04 07:34:04;;;;;;;1.30;1.17;;;;;;;7.23;84.69;93649.97;5013971;28;20180;-77
2023/04/04 07:36:30;;;;;;;1.60;1.20;;;;;;;7.10;85.02;93651.72;5005195;28;20204;-77
2023/04/04 07:38:56;;;;;;;1.80;1.50;;;;;;;6.96;84.30;93660.75;5012379;28;20238;-77
2023/04/04 07:41:22;;;;;;;1.47;1.37;;;;;;;6.93;84.97;93669.00;5014113;28;20215;-77
2023/04/04 07:43:48;;;;;;;3.13;1.73;;;;;;;6.93;85.29;93666.41;5013881;28;20180;-78
2023/04/04 07:46:13;;;;;;;5.37;2.00;;;;;;;6.95;86.05;93667.00;5005633;28;20259;-79
2023/04/04 07:48:39;;;;;;;2.57;2.00;;;;;;;7.06;86.78;93670.69;5005605;28;20169;-78
2023/04/04 07:51:04;;;;;;;4.17;2.23;;;;;;;7.18;85.82;93664.50;5013695;28;20607;-80
2023/04/04 07:53:30;;;;;;;3.60;2.77;;;;;;;7.37;85.59;93677.56;5009842;28;20640;-75
2023/04/04 07:55:56;;;;;;;3.70;2.33;;;;;;;7.45;84.45;93672.84;4999417;28;20188;-77
2023/04/04 07:58:21;;;;;;;5.77;2.60;;;;;;;7.53;83.16;93682.22;5005049;28;20252;-77
2023/04/04 08:00:47;;;;;;;3.77;2.33;;;;;;;7.62;84.38;93678.25;5013549;28;20539;-77
2023/04/04 08:03:12;;;;;;;2.60;2.40;;;;;;;7.55;82.59;93675.72;5004619;28;20181;-77
2023/04/04 08:05:38;;;;;;;4.07;2.87;;;;;;;7.47;81.41;93683.09;5013600;28;20299;-77
2023/04/04 08:08:04;;;;;;;5.47;3.57;;;;;;;7.53;83.47;93698.72;5004914;28;20173;-77
2023/04/04 08:10:30;;;;;;;2.10;1.53;;;;;;;7.40;80.83;93698.09;5002474;28;20177;-77
2023/04/04 08:12:55;;;;;;;2.17;1.57;;;;;;;7.13;81.54;93702.81;5007003;28;20283;-77
2023/04/04 08:15:20;;;;;;;3.50;2.30;;;;;;;7.22;81.38;93709.38;5006766;28;20560;-77
2023/04/04 08:17:46;;;;;;;1.97;1.57;;;;;;;7.06;80.87;93692.44;5011003;28;20284;-76
2023/04/04 08:20:12;;;;;;;3.63;1.47;;;;;;;6.94;80.26;93715.09;5004431;28;20950;-77
2023/04/04 08:22:39;;;;;;;5.93;2.77;;;;;;;6.69;81.77;93711.72;5004150;28;20187;-77
2023/04/04 08:25:04;;;;;;;3.07;2.00;;;;;;;6.49;80.45;93718.94;5012966;28;20257;-77
2023/04/04 08:27:30;;;;;;;1.07;1.03;;;;;;;6.32;81.54;93721.25;5003254;28;20306;-77
2023/04/04 08:29:56;;;;;;;1.90;1.67;;;;;;;6.16;82.43;93714.75;5003916;28;20195;-77
2023/04/04 08:32:21;;;;;;;2.60;2.20;;;;;;;6.27;82.38;93721.91;5011221;28;20255;-77
2023/04/04 08:34:47;;;;;;;1.90;1.80;;;;;;;6.31;82.89;93719.69;5011326;28;20179;-77
2023/04/04 08:37:13;;;;;;;2.37;1.80;;;;;;;6.45;82.09;93734.25;5010466;28;20192;-77
2023/04/04 08:39:38;;;;;;;2.37;1.80;;;;;;;6.58;81.79;93741.97;5007433;28;20178;-77
2023/04/04 08:42:06;;;;;;;4.07;2.97;;;;;;;6.57;80.80;93750.03;5004131;28;20183;-77
2023/04/04 08:44:33;;;;;;;2.33;1.67;;;;;;;6.59;81.34;93743.56;5009449;28;20732;-77
2023/04/04 08:47:01;;;;;;;1.00;1.00;;;;;;;6.47;79.57;93742.66;5009789;28;20263;-77
2023/04/04 08:49:30;;;;;;;4.83;2.67;;;;;;;6.20;80.26;93726.38;5009367;28;20169;-77
2023/04/04 08:51:58;;;;;;;3.40;2.00;;;;;;;6.36;81.16;93743.34;5010462;28;20661;-77
2023/04/04 08:54:25;;;;;;;3.80;2.40;;;;;;;6.34;81.19;93750.59;5011140;28;20176;-77
2023/04/04 08:56:51;;;;;;;4.93;2.97;;;;;;;6.47;81.70;93758.34;5011165;28;20184;-77
2023/04/04 08:59:17;;;;;;;6.03;3.33;;;;;;;6.62;81.96;93758.03;5011129;28;20255;-77
2023/04/04 09:01:43;;;;;;;4.33;3.03;;;;;;;6.73;81.73;93767.81;5011086;28;20169;-77
2023/04/04 09:04:09;;;;;;;4.30;2.93;;;;;;;6.79;80.19;93764.31;5010986;28;20185;-77
2023/04/04 09:06:36;;;;;;;4.70;2.77;;;;;;;6.91;80.57;93762.63;5010904;28;20240;-77
2023/04/04 09:09:02;;;;;;;5.40;3.30;;;;;;;6.82;79.11;93775.16;5011065;28;20661;-77
2023/04/04 09:11:30;;;;;;;4.33;2.67;;;;;;;6.86;80.29;93772.09;5010910;28;20176;-77
2023/04/04 09:13:57;;;;;;;3.70;2.50;;;;;;;6.90;79.96;93754.97;5010870;28;20195;-77
2023/04/04 09:16:22;;;;;;;2.70;2.10;;;;;;;6.84;78.90;93754.00;5010805;28;20176;-77
2023/04/04 09:18:48;;;;;;;1.90;1.70;;;;;;;6.96;78.60;93777.66;5010865;28;20647;-77
2023/04/04 09:21:13;;;;;;;2.70;1.77;;;;;;;6.83;77.77;93783.81;5010783;28;20180;-77
2023/04/04 09:23:39;;;;;;;1.60;1.50;;;;;;;6.80;77.39;93786.84;5010802;28;20176;-77
2023/04/04 09:26:05;;;;;;;1.40;1.20;;;;;;;6.71;77.66;93783.69;5010708;28;20186;-77
2023/04/04 09:28:32;;;;;;;2.63;2.00;;;;;;;6.51;77.00;93779.63;5010692;28;20708;-77
2023/04/04 09:31:01;;;;;;;2.33;2.10;;;;;;;6.47;77.94;93781.06;5010703;28;20188;-77
2023/04/04 09:33:26;;;;;;;2.03;1.93;;;;;;;6.40;78.24;93786.31;5010542;28;20646;-77
2023/04/04 09:35:58;;;;;;;2.80;2.50;;;;;;;6.35;79.11;93783.56;5010342;28;20190;-77
2023/04/04 09:38:25;;;;;;;4.70;2.63;;;;;;;6.52;79.04;93795.09;5010216;28;20631;-77
2023/04/04 09:40:51;;;;;;;3.40;2.20;;;;;;;6.57;77.73;93791.88;5010540;28;20554;-77
2023/04/04 09:43:18;;;;;;;4.17;2.70;;;;;;;6.44;77.22;93787.53;5009219;28;20222;-77
2023/04/04 09:45:44;;;;;;;4.97;2.73;;;;;;;6.48;78.26;93782.69;5010514;28;20191;-77
2023/04/04 09:48:10;;;;;;;3.33;2.47;;;;;;;6.54;79.10;93785.25;5010666;28;20211;-77
2023/04/04 09:50:44;;;;;;;6.23;2.83;;;;;;;6.60;78.17;93791.41;5010581;28;20212;-77
2023/04/04 09:53:15;;;;;;;5.33;3.83;;;;;;;6.40;77.59;93783.72;5010385;28;20184;-77
2023/04/04 09:55:41;;;;;;;4.97;2.50;;;;;;;6.44;77.75;93806.63;5010290;28;20184;-77
2023/04/04 09:58:17;;;;;;;2.30;1.80;;;;;;;6.17;77.40;93802.56;5010275;28;20203;-77
2023/04/04 10:00:47;;;;;;;4.67;3.40;;;;;;;6.28;79.49;93801.91;5011368;28;20267;-77
2023/04/04 10:03:17;;;;;;;4.23;3.10;;;;;;;6.37;79.58;93782.34;5017132;28;20649;-77
2023/04/04 10:05:46;;;;;;;2.60;2.23;;;;;;;6.53;77.25;93788.06;5016539;28;20701;-77
2023/04/04 10:08:16;;;;;;;4.93;2.63;;;;;;;6.62;76.63;93790.22;5016716;28;20199;-77
2023/04/04 10:10:50;;;;;;;3.17;2.07;;;;;;;6.66;76.66;93796.59;5016439;28;20172;-77
2023/04/04 10:13:34;;;;;;;5.57;2.50;;;;;;;6.54;76.03;93787.84;5016859;28;20187;-77
2023/04/04 10:16:01;;;;;;;13.13;5.53;;;;;;;6.72;76.13;93813.25;5016363;28;20536;-77
2023/04/04 10:18:30;;;;;;;6.87;3.80;;;;;;;6.62;75.86;93818.16;5016541;28;20232;-77
2023/04/04 10:20:58;;;;;;;4.33;2.77;;;;;;;6.72;75.63;93805.41;5000930;28;20525;-77
2023/04/04 10:23:26;;;;;;;5.53;2.60;;;;;;;6.65;75.98;93813.31;4996960;28;20629;-77
2023/04/04 10:25:56;;;;;;;5.60;2.87;;;;;;;6.85;76.22;93823.63;4997015;28;20189;-77
2023/04/04 10:28:22;;;;;;;4.53;2.57;;;;;;;6.87;73.68;93829.44;4996729;28;20173;-77
2023/04/04 10:31:20;;;;;;;4.13;2.60;;;;;;;6.78;73.95;93831.50;5014540;28;20707;-77
2023/04/04 10:34:12;;;;;;;3.07;2.03;;;;;;;6.71;73.97;93830.78;5016362;28;20176;-76
2023/04/04 10:36:47;;;;;;;4.13;2.50;;;;;;;6.74;75.54;93834.78;5016268;28;20259;-76
2023/04/04 10:39:14;;;;;;;6.70;3.30;;;;;;;6.74;75.62;93840.00;5016456;28;20727;-76
2023/04/04 10:41:40;;;;;;;4.13;2.87;;;;;;;6.85;76.29;93844.53;5016256;28;20176;-76
2023/04/04 10:44:17;;;;;;;5.50;3.47;;;;;;;7.03;77.17;93841.19;5016420;28;20180;-77
2023/04/04 10:46:46;;;;;;;4.43;2.43;;;;;;;7.24;76.12;93835.56;5016509;28;20176;-75
2023/04/04 10:49:12;;;;;;;3.17;2.10;;;;;;;7.34;75.16;93842.94;4999145;28;20240;-76
2023/04/04 10:51:38;;;;;;;2.50;2.00;;;;;;;7.34;74.27;93837.69;5006693;28;20172;-76
2023/04/04 10:54:05;;;;;;;3.53;2.67;;;;;;;7.35;73.27;93855.00;5010824;28;20191;-76
2023/04/04 10:56:31;;;;;;;7.80;3.57;;;;;;;7.25;74.48;93841.59;5003481;28;20181;-76
2023/04/04 10:59:13;;;;;;;11.93;5.70;;;;;;;7.40;74.51;93871.66;5007778;28;20200;-76
2023/04/04 11:01:54;;;;;;;6.07;3.10;;;;;;;7.24;74.31;93869.59;5017438;28;20226;-75
2023/04/04 11:04:27;;;;;;;3.80;3.10;;;;;;;7.07;75.17;93866.72;4998232;28;20596;-75
2023/04/04 11:07:17;;;;;;;8.10;3.20;;;;;;;6.98;76.17;93867.19;5001413;28;20306;-76
2023/04/04 11:09:55;;;;;;;4.63;3.33;;;;;;;6.96;75.78;93850.91;4994604;28;20259;-75
2023/04/04 11:12:27;;;;;;;4.47;3.23;;;;;;;7.01;75.68;93864.94;5002666;28;20730;-75
2023/04/04 11:15:04;;;;;;;8.67;3.77;;;;;;;7.09;76.09;93864.66;5004659;28;20231;-76
2023/04/04 11:17:55;;;;;;;4.10;3.00;;;;;;;7.10;75.97;93866.28;5016201;28;20822;-76
2023/04/04 11:20:22;;;;;;;2.50;2.00;;;;;;;7.13;75.67;93870.28;5015816;28;20677;-75
2023/04/04 11:23:14;;;;;;;11.33;4.60;;;;;;;7.19;75.55;93885.13;5008300;28;20184;-75
2023/04/04 11:25:40;;;;;;;3.13;2.20;;;;;;;7.14;75.49;93887.59;5004000;28;20165;-75
2023/04/04 11:28:23;;;;;;;2.43;1.80;;;;;;;7.09;75.28;93888.22;5007417;28;20235;-75
2023/04/04 11:31:18;;;;;;;6.40;3.60;;;;;;;6.98;75.33;93894.16;5005936;28;20192;-75
2023/04/04 11:33:53;;;;;;;3.23;2.93;;;;;;;6.91;75.76;93889.97;5010076;28;20173;-75
2023/04/04 11:36:44;;;;;;;4.10;2.40;;;;;;;6.92;75.87;93887.13;4993111;28;20219;-75